sensor_id;sensor_type;location;lat;lon;timestamp;P1;durP1;ratioP1;P2;durP2;ratioP2
51036;SDS011;37064;59.346;18.058;2022-12-18T00:00:30;17.90;;;7.22;;
51036;SDS011;37064;59.346;18.058;2022-12-18T00:02:56;18.33;;;7.05;;
51036;SDS011;37064;59.346;18.058;2022-12-18T00:05:22;12.30;;;6.78;;
51036;SDS011;37064;59.346;18.058;2022-12-18T00:07:49;14.50;;;7.35;;
51036;SDS011;37064;59.346;18.058;2022-12-18T00:10:15;13.18;;;6.97;;
51036;SDS011;37064;59.346;18.058;2022-12-18T00:12:44;20.20;;;8.65;;
51036;SDS011;37064;59.346;18.058;2022-12-18T00:15:09;12.38;;;6.72;;
51036;SDS011;37064;59.346;18.058;2022-12-18T00:17:35;14.57;;;6.85;;
51036;SDS011;37064;59.346;18.058;2022-12-18T00:20:01;14.55;;;7.35;;
51036;SDS011;37064;59.346;18.058;2022-12-18T00:22:28;14.90;;;7.15;;
51036;SDS011;37064;59.346;18.058;2022-12-18T00:24:54;16.60;;;8.32;;
51036;SDS011;37064;59.346;18.058;2022-12-18T00:27:20;15.05;;;7.35;;
51036;SDS011;37064;59.346;18.058;2022-12-18T00:29:47;14.05;;;6.45;;
51036;SDS011;37064;59.346;18.058;2022-12-18T00:32:13;14.75;;;7.43;;
51036;SDS011;37064;59.346;18.058;2022-12-18T00:34:39;13.93;;;6.88;;
51036;SDS011;37064;59.346;18.058;2022-12-18T00:37:05;16.20;;;7.70;;
51036;SDS011;37064;59.346;18.058;2022-12-18T00:39:31;17.15;;;6.18;;
51036;SDS011;37064;59.346;18.058;2022-12-18T00:41:57;11.07;;;6.45;;
51036;SDS011;37064;59.346;18.058;2022-12-18T00:44:41;18.02;;;8.27;;
51036;SDS011;37064;59.346;18.058;2022-12-18T00:47:07;17.00;;;9.10;;
51036;SDS011;37064;59.346;18.058;2022-12-18T00:49:33;14.50;;;7.70;;
51036;SDS011;37064;59.346;18.058;2022-12-18T00:51:59;13.23;;;6.10;;
51036;SDS011;37064;59.346;18.058;2022-12-18T00:54:25;13.40;;;7.03;;
51036;SDS011;37064;59.346;18.058;2022-12-18T00:56:51;13.38;;;6.85;;
51036;SDS011;37064;59.346;18.058;2022-12-18T00:59:18;12.77;;;7.57;;
51036;SDS011;37064;59.346;18.058;2022-12-18T01:01:44;14.75;;;6.95;;
51036;SDS011;37064;59.346;18.058;2022-12-18T01:04:10;15.93;;;8.57;;
51036;SDS011;37064;59.346;18.058;2022-12-18T01:06:36;12.60;;;6.97;;
51036;SDS011;37064;59.346;18.058;2022-12-18T01:09:02;13.30;;;6.80;;
51036;SDS011;37064;59.346;18.058;2022-12-18T01:11:29;15.52;;;7.28;;
51036;SDS011;37064;59.346;18.058;2022-12-18T01:13:55;12.27;;;6.70;;
51036;SDS011;37064;59.346;18.058;2022-12-18T01:16:21;12.75;;;6.70;;
51036;SDS011;37064;59.346;18.058;2022-12-18T01:18:50;12.40;;;6.05;;
51036;SDS011;37064;59.346;18.058;2022-12-18T01:21:16;11.00;;;6.80;;
51036;SDS011;37064;59.346;18.058;2022-12-18T01:23:42;14.00;;;6.85;;
51036;SDS011;37064;59.346;18.058;2022-12-18T01:26:14;12.10;;;7.15;;
51036;SDS011;37064;59.346;18.058;2022-12-18T01:28:41;13.70;;;7.00;;
51036;SDS011;37064;59.346;18.058;2022-12-18T01:31:17;16.67;;;7.78;;
51036;SDS011;37064;59.346;18.058;2022-12-18T01:33:44;10.55;;;5.95;;
51036;SDS011;37064;59.346;18.058;2022-12-18T01:36:17;13.93;;;6.30;;
51036;SDS011;37064;59.346;18.058;2022-12-18T01:38:44;14.60;;;6.45;;
51036;SDS011;37064;59.346;18.058;2022-12-18T01:41:10;11.07;;;6.97;;
51036;SDS011;37064;59.346;18.058;2022-12-18T01:43:43;14.98;;;7.70;;
51036;SDS011;37064;59.346;18.058;2022-12-18T01:46:09;15.68;;;7.00;;
51036;SDS011;37064;59.346;18.058;2022-12-18T01:48:35;13.32;;;6.78;;
51036;SDS011;37064;59.346;18.058;2022-12-18T01:51:02;12.43;;;6.80;;
51036;SDS011;37064;59.346;18.058;2022-12-18T01:53:28;12.43;;;6.90;;
51036;SDS011;37064;59.346;18.058;2022-12-18T01:55:55;13.40;;;7.10;;
51036;SDS011;37064;59.346;18.058;2022-12-18T01:58:23;10.55;;;6.35;;
51036;SDS011;37064;59.346;18.058;2022-12-18T02:00:50;21.92;;;7.40;;
51036;SDS011;37064;59.346;18.058;2022-12-18T02:03:16;15.20;;;7.15;;
51036;SDS011;37064;59.346;18.058;2022-12-18T02:11:20;14.57;;;7.22;;
51036;SDS011;37064;59.346;18.058;2022-12-18T02:18:37;14.50;;;8.25;;
51036;SDS011;37064;59.346;18.058;2022-12-18T02:28:52;13.20;;;6.63;;
51036;SDS011;37064;59.346;18.058;2022-12-18T02:31:21;11.65;;;6.53;;
51036;SDS011;37064;59.346;18.058;2022-12-18T02:33:48;11.00;;;5.85;;
51036;SDS011;37064;59.346;18.058;2022-12-18T02:36:15;15.55;;;7.32;;
51036;SDS011;37064;59.346;18.058;2022-12-18T02:38:42;11.48;;;6.10;;
51036;SDS011;37064;59.346;18.058;2022-12-18T02:41:08;11.48;;;6.90;;
51036;SDS011;37064;59.346;18.058;2022-12-18T02:43:34;14.30;;;7.53;;
51036;SDS011;37064;59.346;18.058;2022-12-18T02:46:00;12.05;;;6.22;;
51036;SDS011;37064;59.346;18.058;2022-12-18T02:48:46;11.65;;;5.95;;
51036;SDS011;37064;59.346;18.058;2022-12-18T02:51:18;13.27;;;7.32;;
51036;SDS011;37064;59.346;18.058;2022-12-18T02:53:55;10.82;;;6.63;;
51036;SDS011;37064;59.346;18.058;2022-12-18T02:56:28;11.38;;;6.80;;
51036;SDS011;37064;59.346;18.058;2022-12-18T02:59:07;14.32;;;7.70;;
51036;SDS011;37064;59.346;18.058;2022-12-18T03:01:36;11.60;;;6.80;;
51036;SDS011;37064;59.346;18.058;2022-12-18T03:04:05;14.43;;;6.25;;
51036;SDS011;37064;59.346;18.058;2022-12-18T03:06:41;11.52;;;5.95;;
51036;SDS011;37064;59.346;18.058;2022-12-18T03:09:10;12.95;;;6.43;;
51036;SDS011;37064;59.346;18.058;2022-12-18T03:11:37;10.93;;;5.75;;
51036;SDS011;37064;59.346;18.058;2022-12-18T03:14:23;12.15;;;6.57;;
51036;SDS011;37064;59.346;18.058;2022-12-18T03:16:50;10.55;;;6.03;;
51036;SDS011;37064;59.346;18.058;2022-12-18T03:19:18;11.77;;;5.88;;
51036;SDS011;37064;59.346;18.058;2022-12-18T03:21:49;13.10;;;5.70;;
51036;SDS011;37064;59.346;18.058;2022-12-18T03:24:17;11.13;;;5.88;;
51036;SDS011;37064;59.346;18.058;2022-12-18T03:26:44;11.45;;;5.95;;
51036;SDS011;37064;59.346;18.058;2022-12-18T03:29:15;12.13;;;6.38;;
51036;SDS011;37064;59.346;18.058;2022-12-18T03:31:42;8.88;;;5.38;;
51036;SDS011;37064;59.346;18.058;2022-12-18T03:34:15;12.82;;;6.30;;
51036;SDS011;37064;59.346;18.058;2022-12-18T03:36:42;13.35;;;7.22;;
51036;SDS011;37064;59.346;18.058;2022-12-18T03:39:09;12.93;;;5.47;;
51036;SDS011;37064;59.346;18.058;2022-12-18T03:41:41;11.75;;;6.25;;
51036;SDS011;37064;59.346;18.058;2022-12-18T03:46:47;11.65;;;5.35;;
51036;SDS011;37064;59.346;18.058;2022-12-18T03:49:26;11.25;;;5.38;;
51036;SDS011;37064;59.346;18.058;2022-12-18T03:52:00;13.00;;;5.95;;
51036;SDS011;37064;59.346;18.058;2022-12-18T03:54:27;10.15;;;5.47;;
51036;SDS011;37064;59.346;18.058;2022-12-18T03:56:56;11.68;;;6.25;;
51036;SDS011;37064;59.346;18.058;2022-12-18T03:59:23;12.10;;;5.75;;
51036;SDS011;37064;59.346;18.058;2022-12-18T04:01:50;11.93;;;5.55;;
51036;SDS011;37064;59.346;18.058;2022-12-18T04:04:18;10.82;;;5.35;;
51036;SDS011;37064;59.346;18.058;2022-12-18T04:06:45;13.55;;;6.28;;
51036;SDS011;37064;59.346;18.058;2022-12-18T04:09:12;14.50;;;5.70;;
51036;SDS011;37064;59.346;18.058;2022-12-18T04:11:39;10.45;;;5.93;;
51036;SDS011;37064;59.346;18.058;2022-12-18T04:14:06;8.68;;;5.28;;
51036;SDS011;37064;59.346;18.058;2022-12-18T04:16:32;9.00;;;6.18;;
51036;SDS011;37064;59.346;18.058;2022-12-18T04:18:58;11.05;;;5.72;;
51036;SDS011;37064;59.346;18.058;2022-12-18T04:21:24;9.88;;;5.80;;
51036;SDS011;37064;59.346;18.058;2022-12-18T04:23:50;11.90;;;6.03;;
51036;SDS011;37064;59.346;18.058;2022-12-18T04:26:16;12.60;;;6.82;;
51036;SDS011;37064;59.346;18.058;2022-12-18T04:28:42;11.52;;;5.35;;
51036;SDS011;37064;59.346;18.058;2022-12-18T04:31:08;10.43;;;5.40;;
51036;SDS011;37064;59.346;18.058;2022-12-18T04:33:34;12.43;;;6.18;;
51036;SDS011;37064;59.346;18.058;2022-12-18T04:36:00;12.00;;;5.68;;
51036;SDS011;37064;59.346;18.058;2022-12-18T04:38:25;12.02;;;5.53;;
51036;SDS011;37064;59.346;18.058;2022-12-18T04:40:51;11.05;;;5.28;;
51036;SDS011;37064;59.346;18.058;2022-12-18T04:43:17;12.80;;;5.45;;
51036;SDS011;37064;59.346;18.058;2022-12-18T04:45:43;10.68;;;5.65;;
51036;SDS011;37064;59.346;18.058;2022-12-18T04:48:09;13.93;;;7.18;;
51036;SDS011;37064;59.346;18.058;2022-12-18T04:50:35;12.13;;;6.03;;
51036;SDS011;37064;59.346;18.058;2022-12-18T04:53:01;10.15;;;5.93;;
51036;SDS011;37064;59.346;18.058;2022-12-18T04:55:27;11.32;;;5.68;;
51036;SDS011;37064;59.346;18.058;2022-12-18T04:57:53;9.80;;;5.97;;
51036;SDS011;37064;59.346;18.058;2022-12-18T05:00:20;10.05;;;5.93;;
51036;SDS011;37064;59.346;18.058;2022-12-18T05:02:46;10.23;;;5.32;;
51036;SDS011;37064;59.346;18.058;2022-12-18T05:05:12;10.10;;;5.80;;
51036;SDS011;37064;59.346;18.058;2022-12-18T05:07:38;11.60;;;5.82;;
51036;SDS011;37064;59.346;18.058;2022-12-18T05:10:04;8.40;;;4.88;;
51036;SDS011;37064;59.346;18.058;2022-12-18T05:12:31;14.55;;;6.13;;
51036;SDS011;37064;59.346;18.058;2022-12-18T05:14:57;10.25;;;5.53;;
51036;SDS011;37064;59.346;18.058;2022-12-18T05:17:23;11.93;;;5.90;;
51036;SDS011;37064;59.346;18.058;2022-12-18T05:19:49;10.80;;;5.22;;
51036;SDS011;37064;59.346;18.058;2022-12-18T05:22:15;10.43;;;5.38;;
51036;SDS011;37064;59.346;18.058;2022-12-18T05:24:41;9.32;;;5.05;;
51036;SDS011;37064;59.346;18.058;2022-12-18T05:27:07;9.77;;;4.93;;
51036;SDS011;37064;59.346;18.058;2022-12-18T05:29:33;12.50;;;5.20;;
51036;SDS011;37064;59.346;18.058;2022-12-18T05:31:59;9.18;;;5.00;;
51036;SDS011;37064;59.346;18.058;2022-12-18T05:34:25;9.77;;;6.10;;
51036;SDS011;37064;59.346;18.058;2022-12-18T05:36:51;8.10;;;4.55;;
51036;SDS011;37064;59.346;18.058;2022-12-18T05:39:17;11.00;;;4.47;;
51036;SDS011;37064;59.346;18.058;2022-12-18T05:41:43;8.43;;;5.13;;
51036;SDS011;37064;59.346;18.058;2022-12-18T05:44:09;14.07;;;5.40;;
51036;SDS011;37064;59.346;18.058;2022-12-18T05:46:35;10.55;;;5.00;;
51036;SDS011;37064;59.346;18.058;2022-12-18T05:49:01;8.88;;;5.22;;
51036;SDS011;37064;59.346;18.058;2022-12-18T05:51:27;10.57;;;5.55;;
51036;SDS011;37064;59.346;18.058;2022-12-18T05:53:53;10.60;;;4.85;;
51036;SDS011;37064;59.346;18.058;2022-12-18T05:56:20;8.38;;;5.13;;
51036;SDS011;37064;59.346;18.058;2022-12-18T05:58:46;11.13;;;5.55;;
51036;SDS011;37064;59.346;18.058;2022-12-18T06:01:14;10.68;;;5.32;;
51036;SDS011;37064;59.346;18.058;2022-12-18T06:03:40;11.23;;;5.85;;
51036;SDS011;37064;59.346;18.058;2022-12-18T06:06:16;11.13;;;5.38;;
51036;SDS011;37064;59.346;18.058;2022-12-18T06:08:43;12.02;;;5.32;;
51036;SDS011;37064;59.346;18.058;2022-12-18T06:11:09;9.32;;;5.30;;
51036;SDS011;37064;59.346;18.058;2022-12-18T06:13:36;10.65;;;5.30;;
51036;SDS011;37064;59.346;18.058;2022-12-18T06:16:03;10.63;;;5.35;;
51036;SDS011;37064;59.346;18.058;2022-12-18T06:18:29;10.63;;;4.70;;
51036;SDS011;37064;59.346;18.058;2022-12-18T06:20:55;13.75;;;5.68;;
51036;SDS011;37064;59.346;18.058;2022-12-18T06:23:22;7.60;;;4.97;;
51036;SDS011;37064;59.346;18.058;2022-12-18T06:25:48;10.32;;;5.13;;
51036;SDS011;37064;59.346;18.058;2022-12-18T06:28:14;9.90;;;4.15;;
51036;SDS011;37064;59.346;18.058;2022-12-18T06:30:42;10.30;;;4.13;;
51036;SDS011;37064;59.346;18.058;2022-12-18T06:33:08;10.33;;;5.07;;
51036;SDS011;37064;59.346;18.058;2022-12-18T06:35:34;11.13;;;5.07;;
51036;SDS011;37064;59.346;18.058;2022-12-18T06:38:01;9.98;;;4.43;;
51036;SDS011;37064;59.346;18.058;2022-12-18T06:40:27;8.18;;;4.28;;
51036;SDS011;37064;59.346;18.058;2022-12-18T06:42:53;10.13;;;5.00;;
51036;SDS011;37064;59.346;18.058;2022-12-18T06:45:19;10.77;;;5.75;;
51036;SDS011;37064;59.346;18.058;2022-12-18T06:47:45;10.55;;;4.97;;
51036;SDS011;37064;59.346;18.058;2022-12-18T06:50:11;9.82;;;5.60;;
51036;SDS011;37064;59.346;18.058;2022-12-18T06:52:38;9.00;;;4.82;;
51036;SDS011;37064;59.346;18.058;2022-12-18T06:55:05;9.20;;;4.60;;
51036;SDS011;37064;59.346;18.058;2022-12-18T07:00:00;8.05;;;4.78;;
51036;SDS011;37064;59.346;18.058;2022-12-18T07:02:26;12.55;;;5.88;;
51036;SDS011;37064;59.346;18.058;2022-12-18T07:04:52;9.90;;;4.75;;
51036;SDS011;37064;59.346;18.058;2022-12-18T07:07:18;9.00;;;4.30;;
51036;SDS011;37064;59.346;18.058;2022-12-18T07:09:44;10.45;;;5.15;;
51036;SDS011;37064;59.346;18.058;2022-12-18T07:12:10;10.38;;;4.97;;
51036;SDS011;37064;59.346;18.058;2022-12-18T07:14:36;12.25;;;5.35;;
51036;SDS011;37064;59.346;18.058;2022-12-18T07:17:02;9.27;;;5.30;;
51036;SDS011;37064;59.346;18.058;2022-12-18T07:19:28;11.02;;;4.95;;
51036;SDS011;37064;59.346;18.058;2022-12-18T07:21:54;11.02;;;5.40;;
51036;SDS011;37064;59.346;18.058;2022-12-18T07:24:20;11.85;;;6.30;;
51036;SDS011;37064;59.346;18.058;2022-12-18T07:26:46;10.93;;;6.40;;
51036;SDS011;37064;59.346;18.058;2022-12-18T07:29:12;10.77;;;5.35;;
51036;SDS011;37064;59.346;18.058;2022-12-18T07:31:38;11.00;;;5.68;;
51036;SDS011;37064;59.346;18.058;2022-12-18T07:34:04;11.15;;;5.53;;
51036;SDS011;37064;59.346;18.058;2022-12-18T07:36:30;15.80;;;6.50;;
51036;SDS011;37064;59.346;18.058;2022-12-18T07:38:56;9.60;;;5.65;;
51036;SDS011;37064;59.346;18.058;2022-12-18T07:41:22;13.43;;;5.60;;
51036;SDS011;37064;59.346;18.058;2022-12-18T07:43:48;13.07;;;6.53;;
51036;SDS011;37064;59.346;18.058;2022-12-18T07:46:15;11.30;;;5.20;;
51036;SDS011;37064;59.346;18.058;2022-12-18T07:48:41;13.73;;;6.60;;
51036;SDS011;37064;59.346;18.058;2022-12-18T07:51:07;11.40;;;6.22;;
51036;SDS011;37064;59.346;18.058;2022-12-18T07:53:37;16.33;;;5.55;;
51036;SDS011;37064;59.346;18.058;2022-12-18T07:56:04;11.77;;;5.90;;
51036;SDS011;37064;59.346;18.058;2022-12-18T07:58:31;15.13;;;6.32;;
51036;SDS011;37064;59.346;18.058;2022-12-18T08:01:09;15.73;;;5.78;;
51036;SDS011;37064;59.346;18.058;2022-12-18T08:03:36;12.60;;;6.65;;
51036;SDS011;37064;59.346;18.058;2022-12-18T08:06:02;12.82;;;6.68;;
51036;SDS011;37064;59.346;18.058;2022-12-18T08:08:29;13.07;;;5.60;;
51036;SDS011;37064;59.346;18.058;2022-12-18T08:10:55;11.13;;;5.50;;
51036;SDS011;37064;59.346;18.058;2022-12-18T08:13:21;13.55;;;6.72;;
51036;SDS011;37064;59.346;18.058;2022-12-18T08:15:57;12.00;;;5.63;;
51036;SDS011;37064;59.346;18.058;2022-12-18T08:18:23;11.23;;;5.80;;
51036;SDS011;37064;59.346;18.058;2022-12-18T08:20:49;10.60;;;6.20;;
51036;SDS011;37064;59.346;18.058;2022-12-18T08:23:15;13.02;;;6.85;;
51036;SDS011;37064;59.346;18.058;2022-12-18T08:25:41;16.85;;;7.53;;
51036;SDS011;37064;59.346;18.058;2022-12-18T08:28:07;13.55;;;7.30;;
51036;SDS011;37064;59.346;18.058;2022-12-18T08:30:33;13.73;;;6.32;;
51036;SDS011;37064;59.346;18.058;2022-12-18T08:32:59;14.52;;;7.40;;
51036;SDS011;37064;59.346;18.058;2022-12-18T08:35:25;11.23;;;6.28;;
51036;SDS011;37064;59.346;18.058;2022-12-18T08:37:52;15.73;;;7.18;;
51036;SDS011;37064;59.346;18.058;2022-12-18T08:40:17;12.07;;;6.15;;
51036;SDS011;37064;59.346;18.058;2022-12-18T08:42:43;14.07;;;7.00;;
51036;SDS011;37064;59.346;18.058;2022-12-18T08:45:28;10.82;;;6.85;;
51036;SDS011;37064;59.346;18.058;2022-12-18T08:47:54;13.45;;;7.22;;
51036;SDS011;37064;59.346;18.058;2022-12-18T08:50:20;13.65;;;7.00;;
51036;SDS011;37064;59.346;18.058;2022-12-18T08:52:46;14.20;;;7.15;;
51036;SDS011;37064;59.346;18.058;2022-12-18T08:55:12;12.82;;;7.03;;
51036;SDS011;37064;59.346;18.058;2022-12-18T08:57:38;13.73;;;7.00;;
51036;SDS011;37064;59.346;18.058;2022-12-18T09:00:04;12.70;;;5.47;;
51036;SDS011;37064;59.346;18.058;2022-12-18T09:02:30;14.30;;;7.53;;
51036;SDS011;37064;59.346;18.058;2022-12-18T09:04:56;14.48;;;6.97;;
51036;SDS011;37064;59.346;18.058;2022-12-18T09:07:22;14.00;;;6.65;;
51036;SDS011;37064;59.346;18.058;2022-12-18T09:09:48;12.77;;;7.05;;
51036;SDS011;37064;59.346;18.058;2022-12-18T09:12:14;15.43;;;7.20;;
51036;SDS011;37064;59.346;18.058;2022-12-18T09:14:40;13.57;;;7.65;;
51036;SDS011;37064;59.346;18.058;2022-12-18T09:17:06;14.80;;;7.40;;
51036;SDS011;37064;59.346;18.058;2022-12-18T09:19:32;10.40;;;6.22;;
51036;SDS011;37064;59.346;18.058;2022-12-18T09:21:58;12.23;;;6.78;;
51036;SDS011;37064;59.346;18.058;2022-12-18T09:24:24;12.82;;;5.57;;
51036;SDS011;37064;59.346;18.058;2022-12-18T09:26:52;12.20;;;6.50;;
51036;SDS011;37064;59.346;18.058;2022-12-18T09:29:19;11.13;;;6.05;;
51036;SDS011;37064;59.346;18.058;2022-12-18T09:31:46;9.90;;;5.95;;
51036;SDS011;37064;59.346;18.058;2022-12-18T09:34:12;8.95;;;5.80;;
51036;SDS011;37064;59.346;18.058;2022-12-18T09:36:38;11.02;;;5.90;;
51036;SDS011;37064;59.346;18.058;2022-12-18T09:39:04;13.43;;;5.85;;
51036;SDS011;37064;59.346;18.058;2022-12-18T09:41:46;12.13;;;6.03;;
51036;SDS011;37064;59.346;18.058;2022-12-18T09:49:19;11.90;;;5.60;;
51036;SDS011;37064;59.346;18.058;2022-12-18T09:51:52;10.55;;;5.38;;
51036;SDS011;37064;59.346;18.058;2022-12-18T09:54:21;15.68;;;5.93;;
51036;SDS011;37064;59.346;18.058;2022-12-18T09:56:48;9.23;;;5.72;;
51036;SDS011;37064;59.346;18.058;2022-12-18T09:59:19;10.32;;;6.28;;
51036;SDS011;37064;59.346;18.058;2022-12-18T10:01:46;11.65;;;6.43;;
51036;SDS011;37064;59.346;18.058;2022-12-18T10:04:12;9.27;;;5.82;;
51036;SDS011;37064;59.346;18.058;2022-12-18T10:06:43;12.20;;;6.70;;
51036;SDS011;37064;59.346;18.058;2022-12-18T10:11:55;11.15;;;7.07;;
51036;SDS011;37064;59.346;18.058;2022-12-18T10:25:20;12.32;;;6.53;;
51036;SDS011;37064;59.346;18.058;2022-12-18T10:27:47;11.98;;;6.50;;
51036;SDS011;37064;59.346;18.058;2022-12-18T10:30:19;12.43;;;6.10;;
51036;SDS011;37064;59.346;18.058;2022-12-18T10:32:45;12.60;;;6.30;;
51036;SDS011;37064;59.346;18.058;2022-12-18T10:35:15;12.57;;;6.53;;
51036;SDS011;37064;59.346;18.058;2022-12-18T10:37:58;11.75;;;5.32;;
51036;SDS011;37064;59.346;18.058;2022-12-18T10:40:25;16.27;;;6.30;;
51036;SDS011;37064;59.346;18.058;2022-12-18T10:45:29;12.77;;;7.00;;
51036;SDS011;37064;59.346;18.058;2022-12-18T10:47:55;11.93;;;5.75;;
51036;SDS011;37064;59.346;18.058;2022-12-18T10:52:59;9.00;;;5.70;;
51036;SDS011;37064;59.346;18.058;2022-12-18T10:55:27;16.20;;;6.22;;
51036;SDS011;37064;59.346;18.058;2022-12-18T10:57:55;12.02;;;6.32;;
51036;SDS011;37064;59.346;18.058;2022-12-18T11:00:38;12.27;;;6.20;;
51036;SDS011;37064;59.346;18.058;2022-12-18T11:03:07;13.20;;;6.07;;
51036;SDS011;37064;59.346;18.058;2022-12-18T11:05:50;13.00;;;7.57;;
51036;SDS011;37064;59.346;18.058;2022-12-18T11:08:26;12.68;;;6.25;;
51036;SDS011;37064;59.346;18.058;2022-12-18T11:10:52;14.10;;;5.88;;
51036;SDS011;37064;59.346;18.058;2022-12-18T11:13:19;12.27;;;6.15;;
51036;SDS011;37064;59.346;18.058;2022-12-18T11:15:46;10.13;;;5.95;;
51036;SDS011;37064;59.346;18.058;2022-12-18T11:19:12;14.23;;;6.50;;
51036;SDS011;37064;59.346;18.058;2022-12-18T11:23:27;12.07;;;6.20;;
51036;SDS011;37064;59.346;18.058;2022-12-18T11:25:57;10.45;;;5.32;;
51036;SDS011;37064;59.346;18.058;2022-12-18T11:28:37;11.75;;;7.28;;
51036;SDS011;37064;59.346;18.058;2022-12-18T11:36:34;15.50;;;7.55;;
51036;SDS011;37064;59.346;18.058;2022-12-18T11:39:05;12.93;;;5.65;;
51036;SDS011;37064;59.346;18.058;2022-12-18T11:41:37;11.38;;;6.47;;
51036;SDS011;37064;59.346;18.058;2022-12-18T11:44:25;10.45;;;5.68;;
51036;SDS011;37064;59.346;18.058;2022-12-18T11:46:58;12.32;;;5.97;;
51036;SDS011;37064;59.346;18.058;2022-12-18T11:49:32;11.27;;;5.93;;
51036;SDS011;37064;59.346;18.058;2022-12-18T11:54:30;8.65;;;5.82;;
51036;SDS011;37064;59.346;18.058;2022-12-18T11:56:58;9.10;;;5.30;;
51036;SDS011;37064;59.346;18.058;2022-12-18T12:01:59;11.73;;;6.40;;
51036;SDS011;37064;59.346;18.058;2022-12-18T12:16:57;15.48;;;6.28;;
51036;SDS011;37064;59.346;18.058;2022-12-18T12:27:10;8.32;;;5.25;;
51036;SDS011;37064;59.346;18.058;2022-12-18T12:37:21;10.57;;;6.13;;
51036;SDS011;37064;59.346;18.058;2022-12-18T12:39:49;11.05;;;6.00;;
51036;SDS011;37064;59.346;18.058;2022-12-18T12:42:18;11.20;;;5.75;;
51036;SDS011;37064;59.346;18.058;2022-12-18T12:45:05;9.38;;;5.75;;
51036;SDS011;37064;59.346;18.058;2022-12-18T12:47:35;13.05;;;5.72;;
51036;SDS011;37064;59.346;18.058;2022-12-18T12:50:05;11.23;;;5.88;;
51036;SDS011;37064;59.346;18.058;2022-12-18T12:52:37;10.85;;;5.13;;
51036;SDS011;37064;59.346;18.058;2022-12-18T12:55:07;11.65;;;5.85;;
51036;SDS011;37064;59.346;18.058;2022-12-18T12:57:40;9.45;;;5.40;;
51036;SDS011;37064;59.346;18.058;2022-12-18T13:02:39;13.38;;;6.18;;
51036;SDS011;37064;59.346;18.058;2022-12-18T13:05:23;8.20;;;5.25;;
51036;SDS011;37064;59.346;18.058;2022-12-18T13:07:51;8.82;;;5.50;;
51036;SDS011;37064;59.346;18.058;2022-12-18T13:20:43;11.02;;;4.50;;
51036;SDS011;37064;59.346;18.058;2022-12-18T13:25:54;15.35;;;5.45;;
51036;SDS011;37064;59.346;18.058;2022-12-18T13:31:02;11.38;;;5.00;;
51036;SDS011;37064;59.346;18.058;2022-12-18T13:36:02;12.18;;;5.93;;
51036;SDS011;37064;59.346;18.058;2022-12-18T13:41:00;11.15;;;5.78;;
51036;SDS011;37064;59.346;18.058;2022-12-18T13:43:41;16.35;;;5.32;;
51036;SDS011;37064;59.346;18.058;2022-12-18T13:48:48;10.02;;;5.20;;
51036;SDS011;37064;59.346;18.058;2022-12-18T13:51:17;8.63;;;4.63;;
51036;SDS011;37064;59.346;18.058;2022-12-18T13:53:44;10.75;;;4.38;;
51036;SDS011;37064;59.346;18.058;2022-12-18T13:56:16;9.70;;;4.65;;
51036;SDS011;37064;59.346;18.058;2022-12-18T13:58:45;9.65;;;4.70;;
51036;SDS011;37064;59.346;18.058;2022-12-18T14:01:44;9.90;;;4.28;;
51036;SDS011;37064;59.346;18.058;2022-12-18T14:06:45;6.13;;;3.67;;
51036;SDS011;37064;59.346;18.058;2022-12-18T14:09:13;10.45;;;4.45;;
51036;SDS011;37064;59.346;18.058;2022-12-18T14:11:40;9.20;;;3.60;;
51036;SDS011;37064;59.346;18.058;2022-12-18T14:14:06;10.73;;;4.30;;
51036;SDS011;37064;59.346;18.058;2022-12-18T14:16:32;10.85;;;4.15;;
51036;SDS011;37064;59.346;18.058;2022-12-18T14:18:59;14.68;;;4.85;;
51036;SDS011;37064;59.346;18.058;2022-12-18T14:21:26;8.07;;;3.53;;
51036;SDS011;37064;59.346;18.058;2022-12-18T14:26:50;7.95;;;4.10;;
51036;SDS011;37064;59.346;18.058;2022-12-18T14:29:21;8.55;;;3.90;;
51036;SDS011;37064;59.346;18.058;2022-12-18T14:34:32;10.00;;;4.38;;
51036;SDS011;37064;59.346;18.058;2022-12-18T14:36:58;12.45;;;4.05;;
51036;SDS011;37064;59.346;18.058;2022-12-18T14:39:24;8.75;;;4.38;;
51036;SDS011;37064;59.346;18.058;2022-12-18T14:41:50;7.78;;;3.70;;
51036;SDS011;37064;59.346;18.058;2022-12-18T14:44:17;8.90;;;3.67;;
51036;SDS011;37064;59.346;18.058;2022-12-18T14:46:44;8.00;;;4.80;;
51036;SDS011;37064;59.346;18.058;2022-12-18T14:51:53;9.20;;;4.05;;
51036;SDS011;37064;59.346;18.058;2022-12-18T14:54:20;8.20;;;3.83;;
51036;SDS011;37064;59.346;18.058;2022-12-18T14:56:51;7.82;;;4.78;;
51036;SDS011;37064;59.346;18.058;2022-12-18T14:59:24;7.50;;;3.75;;
51036;SDS011;37064;59.346;18.058;2022-12-18T15:04:24;8.50;;;4.40;;
51036;SDS011;37064;59.346;18.058;2022-12-18T15:07:02;10.23;;;3.95;;
51036;SDS011;37064;59.346;18.058;2022-12-18T15:09:28;5.25;;;3.30;;
51036;SDS011;37064;59.346;18.058;2022-12-18T15:11:58;7.05;;;4.10;;
51036;SDS011;37064;59.346;18.058;2022-12-18T15:17:21;10.07;;;5.47;;
51036;SDS011;37064;59.346;18.058;2022-12-18T15:19:48;10.32;;;4.55;;
51036;SDS011;37064;59.346;18.058;2022-12-18T15:22:17;12.75;;;5.40;;
51036;SDS011;37064;59.346;18.058;2022-12-18T15:24:43;14.30;;;5.57;;
51036;SDS011;37064;59.346;18.058;2022-12-18T15:27:24;13.30;;;4.80;;
51036;SDS011;37064;59.346;18.058;2022-12-18T15:32:26;16.77;;;4.38;;
51036;SDS011;37064;59.346;18.058;2022-12-18T15:35:02;11.63;;;5.30;;
51036;SDS011;37064;59.346;18.058;2022-12-18T15:37:28;8.93;;;3.65;;
51036;SDS011;37064;59.346;18.058;2022-12-18T15:39:54;16.83;;;4.88;;
51036;SDS011;37064;59.346;18.058;2022-12-18T15:42:20;11.10;;;3.72;;
51036;SDS011;37064;59.346;18.058;2022-12-18T15:45:04;6.78;;;2.80;;
51036;SDS011;37064;59.346;18.058;2022-12-18T15:47:30;14.45;;;3.38;;
51036;SDS011;37064;59.346;18.058;2022-12-18T15:49:58;6.88;;;2.92;;
51036;SDS011;37064;59.346;18.058;2022-12-18T15:52:23;8.70;;;2.55;;
51036;SDS011;37064;59.346;18.058;2022-12-18T15:54:50;8.55;;;3.30;;
51036;SDS011;37064;59.346;18.058;2022-12-18T15:57:35;5.93;;;2.63;;
51036;SDS011;37064;59.346;18.058;2022-12-18T16:00:01;6.57;;;2.55;;
51036;SDS011;37064;59.346;18.058;2022-12-18T16:02:27;7.78;;;2.55;;
51036;SDS011;37064;59.346;18.058;2022-12-18T16:04:53;7.60;;;3.10;;
51036;SDS011;37064;59.346;18.058;2022-12-18T16:07:20;10.32;;;3.28;;
51036;SDS011;37064;59.346;18.058;2022-12-18T16:09:47;7.35;;;3.17;;
51036;SDS011;37064;59.346;18.058;2022-12-18T16:12:22;7.22;;;3.25;;
51036;SDS011;37064;59.346;18.058;2022-12-18T16:14:50;5.70;;;2.65;;
51036;SDS011;37064;59.346;18.058;2022-12-18T16:17:16;8.05;;;2.35;;
51036;SDS011;37064;59.346;18.058;2022-12-18T16:19:42;10.52;;;3.00;;
51036;SDS011;37064;59.346;18.058;2022-12-18T16:22:22;9.95;;;3.35;;
51036;SDS011;37064;59.346;18.058;2022-12-18T16:24:48;7.97;;;2.90;;
51036;SDS011;37064;59.346;18.058;2022-12-18T16:27:15;10.63;;;3.40;;
51036;SDS011;37064;59.346;18.058;2022-12-18T16:29:41;8.05;;;2.72;;
51036;SDS011;37064;59.346;18.058;2022-12-18T16:32:08;8.10;;;3.05;;
51036;SDS011;37064;59.346;18.058;2022-12-18T16:34:37;7.30;;;2.10;;
51036;SDS011;37064;59.346;18.058;2022-12-18T16:37:04;9.10;;;2.65;;
51036;SDS011;37064;59.346;18.058;2022-12-18T16:39:30;8.55;;;2.72;;
51036;SDS011;37064;59.346;18.058;2022-12-18T16:41:58;8.70;;;3.30;;